Latest Weather Observations for Sheffield

IDT60801

Issued at 10:41 am EST Monday 19 April 2021 (issued every 10 minutes, with the page automatically refreshed every 10 minutes)

About weather observations | Map of weather stations | Latest weather observations for TAS | Other Formats
Station Details ID: 091291 Name: SHEFFIELD SCHOOL FARM Lat: -41.39 Lon: 146.32 Height: 294.2 m
Data from the previous 72 hours. | See also: Recent months at Sheffield
Date/Time
EST
Temp
°C
App
Temp
°C
Dew
Point
°C
Rel
Hum
%
Delta-T
°C
Wind Press
QNH
hPa
Press
MSL
hPa
Rain since
9am
mm
Dir  Spd
km/h
Gust
km/h
Spd
kts
Gust
kts
19/10:30am 12.5 8.3 8.2 75 2.2 NW 20 30 11 16 1011.7 1011.7 0.0
19/10:00am 12.9 8.7 8.4 74 2.3 NW 20 32 11 17 1011.8 1011.8 0.0
19/09:30am 12.4 9.1 7.9 74 2.2 WNW 15 24 8 13 1012.2 1012.1 0.0
19/09:00am 11.8 8.8 7.9 77 1.9 NW 13 20 7 11 1012.3 1012.2 0.0
19/08:30am 11.3 8.9 8.7 84 1.3 NNW 11 15 6 8 1012.4 1012.3 0.0
19/08:00am 10.2 8.6 8.0 86 1.1 NNW 6 9 3 5 1012.3 1012.2 0.0
19/07:30am 9.4 6.9 8.0 91 0.7 NNW 11 15 6 8 1012.2 1012.1 0.0
19/07:00am 9.3 6.2 7.3 87 1.0 NNW 13 15 7 8 1012.2 1012.1 0.0
19/06:30am 9.0 6.6 7.1 88 0.9 NW 9 11 5 6 1012.2 1012.1 0.0
19/06:00am 9.1 6.7 6.9 86 1.0 NW 9 13 5 7 1012.4 1012.3 0.0
19/05:30am 9.1 5.8 6.2 82 1.4 W 13 20 7 11 1012.3 1012.2 0.0
19/05:00am 8.4 5.5 8.3 99 0.0 NW 13 22 7 12 1012.1 1012.0 0.0
19/04:30am 7.5 5.2 7.4 99 0.0 NW 9 13 5 7 1012.1 1012.0 0.0
19/04:00am 7.4 4.3 7.3 99 0.0 NW 13 19 7 10 1012.1 1012.0 0.0
19/03:30am 7.0 3.7 6.4 96 0.3 NNW 13 15 7 8 1012.4 1012.3 0.0
19/03:00am 7.6 4.7 6.7 94 0.4 NNW 11 15 6 8 1012.7 1012.6 0.0
19/02:30am 7.2 4.2 5.8 91 0.6 NNW 11 15 6 8 1013.1 1013.1 0.0
19/02:00am 7.9 4.9 6.2 89 0.8 NNW 11 13 6 7 1013.3 1013.3 0.0
19/01:30am 7.6 4.1 5.6 87 0.9 NNW 13 17 7 9 1013.5 1013.5 0.0
19/01:00am 8.4 5.6 5.3 81 1.4 NW 9 11 5 6 1013.9 1013.9 0.0
19/12:30am 8.1 5.3 5.0 81 1.4 NNW 9 11 5 6 1013.9 1013.9 0.0
19/12:00am 8.0 4.0 4.9 81 1.4 WNW 15 17 8 9 1014.1 1014.1 0.0
 
Date/Time
EST
Temp
°C
App
Temp
°C
Dew
Point
°C
Rel
Hum
%
Delta-T
°C
Wind Press
QNH
hPa
Press
MSL
hPa
Rain since
9am
mm
Dir  Spd
km/h
Gust
km/h
Spd
kts
Gust
kts
18/11:30pm 8.5 5.3 5.1 79 1.5 WNW 11 13 6 7 1014.5 1014.5 0.0
18/11:00pm 8.8 5.3 5.4 79 1.6 WNW 13 17 7 9 1014.5 1014.5 0.0
18/10:30pm 9.2 6.2 5.8 79 1.6 NW 11 13 6 7 1014.9 1014.9 0.0
18/10:00pm 9.7 6.0 6.1 78 1.7 NW 15 20 8 11 1014.9 1014.9 0.0
18/09:30pm 10.1 6.1 6.8 80 1.6 WNW 17 20 9 11 1015.2 1015.2 0.0
18/09:00pm 9.7 5.8 7.1 84 1.2 WNW 17 22 9 12 1015.1 1015.1 0.0
18/08:30pm 9.8 6.0 7.4 85 1.2 NW 17 24 9 13 1014.8 1014.8 0.0
18/08:00pm 10.2 6.5 7.8 85 1.2 NW 17 20 9 11 1014.9 1014.9 0.0
18/07:30pm 9.9 6.5 7.7 86 1.1 WNW 15 17 8 9 1014.8 1014.8 0.0
18/07:00pm 10.0 8.2 7.1 82 1.4 WNW 6 9 3 5 1014.9 1014.9 0.0
18/06:30pm 10.1 7.8 7.3 83 1.4 NW 9 13 5 7 1014.6 1014.6 0.0
18/06:00pm 11.3 8.3 7.6 78 1.8 WNW 13 17 7 9 1014.6 1014.6 0.0
18/05:30pm 11.8 9.6 7.7 76 2.0 NW 9 11 5 6 1014.4 1014.4 0.0
18/05:00pm 12.9 11.1 8.0 72 2.5 WNW 7 11 4 6 1014.4 1014.4 0.0
18/04:30pm 13.3 11.1 7.7 69 2.8 WNW 9 13 5 7 1014.4 1014.4 0.0
18/04:00pm 13.8 10.7 7.3 65 3.2 W 13 20 7 11 1014.3 1014.3 0.0
18/03:30pm 14.3 10.8 7.1 62 3.6 W 15 26 8 14 1014.5 1014.5 0.0
18/03:00pm 15.0 11.1 7.3 60 3.9 W 17 30 9 16 1014.6 1014.6 0.0
18/02:30pm 15.4 10.5 6.9 57 4.2 W 22 33 12 18 1014.6 1014.6 0.0
18/02:00pm 15.9 10.7 7.1 56 4.4 WSW 24 35 13 19 1014.7 1014.7 0.0
18/01:30pm 16.2 11.4 7.4 56 4.5 W 22 35 12 19 1014.9 1014.9 0.0
18/01:00pm 16.1 11.4 7.6 57 4.3 W 22 32 12 17 1015.3 1015.3 0.0
18/12:30pm 15.8 11.1 7.6 58 4.2 W 22 33 12 18 1015.7 1015.6 0.0
18/12:00pm 15.6 12.2 9.3 66 3.3 WNW 17 32 9 17 1016.1 1016.1 0.0
18/11:30am 14.5 9.5 8.2 66 3.2 WSW 24 32 13 17 1016.5 1016.5 0.0
18/11:00am 13.9 9.8 7.7 66 3.1 W 19 28 10 15 1016.8 1016.8 0.0
18/10:30am 14.1 9.3 7.2 63 3.4 W 22 35 12 19 1017.1 1017.1 0.0
18/10:00am 14.1 9.8 7.9 66 3.1 WNW 20 30 11 16 1017.0 1017.0 0.0
18/09:30am 13.4 9.7 8.0 70 2.7 WNW 17 24 9 13 1017.1 1017.1 0.0
18/09:00am 12.2 8.4 7.5 73 2.3 WNW 17 24 9 13 1017.3 1017.3 0.0
18/08:30am 11.3 7.5 7.4 77 1.9 NW 17 20 9 11 1017.3 1017.3 0.0
18/08:00am 8.6 5.7 6.7 88 0.9 NNW 11 13 6 7 1017.3 1017.3 0.0
18/07:30am 7.3 4.6 5.6 89 0.8 NW 9 20 5 11 1017.2 1017.2 0.0
18/07:00am 7.5 4.7 5.0 84 1.1 NW 9 13 5 7 1017.0 1017.0 0.0
18/06:30am 8.6 5.5 5.7 82 1.3 WNW 11 17 6 9 1017.0 1017.0 0.0
18/06:00am 8.6 5.2 5.7 82 1.3 NW 13 17 7 9 1017.0 1017.0 0.0
18/05:30am 8.9 5.1 6.0 82 1.3 NW 15 19 8 10 1017.0 1017.0 0.0
18/05:00am 8.6 4.8 5.7 82 1.3 WNW 15 20 8 11 1016.9 1016.9 0.0
18/04:30am 8.7 5.2 5.6 81 1.4 WNW 13 19 7 10 1016.9 1016.9 0.0
18/04:00am 9.1 5.3 5.8 80 1.5 WNW 15 22 8 12 1017.1 1017.1 0.0
18/03:30am 9.4 5.6 5.9 79 1.6 WNW 15 20 8 11 1017.1 1017.1 0.0
18/03:00am 9.2 5.8 6.1 81 1.4 WNW 13 24 7 13 1017.1 1017.1 0.0
18/02:30am 8.4 5.1 6.2 86 1.0 WNW 13 19 7 10 1017.3 1017.3 0.0
18/02:00am 8.3 5.7 6.3 87 0.9 WNW 9 15 5 8 1017.7 1017.7 0.0
18/01:30am 8.1 6.1 7.0 93 0.5 WNW 7 11 4 6 1018.0 1018.0 0.0
18/01:00am 8.0 5.9 6.8 92 0.6 NNW 7 9 4 5 1018.2 1018.2 0.0
18/12:30am 8.6 6.2 6.9 89 0.8 NW 9 13 5 7 1018.2 1018.2 0.0
18/12:00am 8.6 6.2 6.9 89 0.8 NNW 9 11 5 6 1018.3 1018.3 0.0
 
Date/Time
EST
Temp
°C
App
Temp
°C
Dew
Point
°C
Rel
Hum
%
Delta-T
°C
Wind Press
QNH
hPa
Press
MSL
hPa
Rain since
9am
mm
Dir  Spd
km/h
Gust
km/h
Spd
kts
Gust
kts
17/11:30pm 8.7 5.8 6.5 86 1.0 NNW 11 13 6 7 1018.5 1018.5 0.0
17/11:00pm 10.2 7.9 7.3 82 1.4 NW 9 13 5 7 1018.7 1018.8 0.0
17/10:30pm 10.2 7.9 7.4 83 1.4 NNW 9 13 5 7 1019.0 1019.1 0.0
17/10:00pm 10.5 8.3 7.7 83 1.4 NW 9 15 5 8 1019.2 1019.2 0.0
17/09:30pm 10.5 7.5 7.9 84 1.3 WNW 13 20 7 11 1019.2 1019.2 0.0
17/09:00pm 11.4 7.8 8.4 82 1.5 WNW 17 24 9 13 1018.9 1019.0 0.0
17/08:30pm 11.4 9.0 8.6 83 1.4 NW 11 19 6 10 1018.8 1018.9 0.0
17/08:00pm 11.2 8.8 8.8 85 1.2 NW 11 17 6 9 1018.9 1019.0 0.0
17/07:30pm 11.6 8.6 9.2 85 1.2 NNW 15 20 8 11 1018.8 1018.9 0.0
17/07:00pm 11.4 9.2 9.5 88 1.0 NW 11 17 6 9 1018.7 1018.8 0.0
17/06:30pm 12.4 9.7 9.1 80 1.7 NW 13 19 7 10 1018.6 1018.7 0.0
17/06:00pm 12.4 9.6 8.7 78 1.9 NW 13 17 7 9 1018.4 1018.4 0.0
17/05:30pm 13.2 10.0 8.5 73 2.4 WNW 15 26 8 14 1018.2 1018.2 0.0
17/05:00pm 13.6 10.4 8.4 71 2.6 WNW 15 20 8 11 1018.0 1018.0 0.0
17/04:30pm 13.6 9.7 8.7 72 2.5 WNW 19 26 10 14 1017.9 1017.9 0.0
17/04:00pm 14.4 11.3 8.8 69 2.9 NW 15 20 8 11 1017.8 1017.8 0.0
17/03:30pm 14.8 11.8 7.8 63 3.5 W 13 19 7 10 1017.9 1017.9 0.0
17/03:00pm 14.8 11.8 7.6 62 3.6 W 13 20 7 11 1017.9 1017.9 0.0
17/02:30pm 14.8 10.6 7.4 61 3.7 W 19 26 10 14 1017.9 1017.9 0.0
17/02:00pm 15.4 11.3 7.7 60 3.9 WSW 19 26 10 14 1017.7 1017.7 0.0
17/01:30pm 15.2 11.9 8.0 62 3.7 W 15 26 8 14 1018.0 1018.0 0.0
17/01:00pm 14.8 11.8 7.8 63 3.5 W 13 22 7 12 1018.1 1018.1 0.0
17/12:30pm 14.6 10.3 7.9 64 3.4 W 20 35 11 19 1018.5 1018.5 0.0
17/12:00pm 14.3 9.5 7.4 63 3.4 W 22 37 12 20 1018.8 1018.9 0.0
17/11:30am 13.9 11.0 8.1 68 2.9 WNW 13 20 7 11 1019.0 1019.1 0.0
17/11:00am 13.7 11.1 7.9 68 2.9 WNW 11 19 6 10 1019.3 1019.3 0.0
17/10:30am 14.1 11.6 8.1 67 3.0 WNW 11 19 6 10 1019.3 1019.3 0.0
17/10:00am 13.2 10.1 7.4 68 2.9 WNW 13 19 7 10 1019.7 1019.7 0.0
17/09:30am 12.4 10.2 7.7 73 2.3 N 9 13 5 7 1019.9 1019.9 0.0
17/09:00am 11.1 7.8 6.6 74 2.2 NNW 13 19 7 10 1020.0 1020.0 0.0
17/08:30am 10.0 6.3 6.3 78 1.7 N 15 20 8 11 1020.1 1020.1 0.0
17/08:00am 9.3 6.7 5.9 79 1.6 NNW 9 15 5 8 1020.1 1020.1 0.0
17/07:30am 9.6 6.4 5.0 73 2.1 WNW 11 19 6 10 1019.9 1019.9 0.0
17/07:00am 8.6 5.3 4.6 76 1.8 NW 11 20 6 11 1019.7 1019.7 0.0
17/06:30am 9.6 5.1 4.0 68 2.5 WNW 17 30 9 16 1019.6 1019.6 0.0
17/06:00am 9.6 5.4 3.8 67 2.6 W 15 24 8 13 1019.3 1019.3 0.0
17/05:30am 9.3 5.9 3.9 69 2.4 W 11 20 6 11 1019.4 1019.4 0.0
17/05:00am 8.5 4.4 4.1 74 1.9 NW 15 20 8 11 1019.2 1019.2 0.0
17/04:30am 8.7 4.9 3.7 71 2.2 NW 13 20 7 11 1018.9 1019.0 0.0
17/04:00am 7.9 3.9 3.0 71 2.1 WNW 13 20 7 11 1018.8 1018.9 0.0
17/03:30am 8.8 4.1 3.0 67 2.5 W 17 30 9 16 1018.8 1018.9 0.0
17/03:00am 9.1 3.4 3.1 66 2.6 W 22 33 12 18 1019.0 1019.1 0.0
17/02:30am 8.7 5.3 4.1 73 2.0 WNW 11 24 6 13 1019.4 1019.4 0.0
17/02:00am 6.7 3.5 3.0 77 1.6 NNW 9 13 5 7 1019.5 1019.5 0.0
17/01:30am 8.6 3.5 3.0 68 2.4 W 19 33 10 18 1019.5 1019.5 0.0
17/01:00am 8.3 3.6 3.2 70 2.2 W 17 26 9 14 1019.6 1019.6 0.0
17/12:30am 7.5 3.6 3.4 75 1.8 WNW 13 17 7 9 1019.8 1019.8 0.0
17/12:00am 7.4 3.1 3.3 75 1.8 WNW 15 24 8 13 1019.8 1019.8 0.0
 
Date/Time
EST
Temp
°C
App
Temp
°C
Dew
Point
°C
Rel
Hum
%
Delta-T
°C
Wind Press
QNH
hPa
Press
MSL
hPa
Rain since
9am
mm
Dir  Spd
km/h
Gust
km/h
Spd
kts
Gust
kts
16/11:30pm 7.0 3.0 3.1 76 1.7 WNW 13 17 7 9 1020.1 1020.1 0.0
16/11:00pm 7.8 4.2 3.1 72 2.0 W 11 19 6 10 1020.3 1020.3 0.0
16/10:30pm 8.1 3.0 3.0 70 2.2 W 19 28 10 15 1020.5 1020.5 0.0
16/10:00pm 8.5 2.8 3.1 69 2.3 WSW 22 33 12 18 1020.6 1020.6 0.0
16/09:30pm 8.1 3.8 3.0 70 2.2 W 15 26 8 14 1020.8 1020.8 0.0
16/09:00pm 8.0 2.9 3.1 71 2.1 W 19 26 10 14 1020.8 1020.8 0.0
16/08:30pm 8.3 3.0 3.0 69 2.3 W 20 32 11 17 1020.7 1020.7 0.0
16/08:00pm 8.3 2.3 3.2 70 2.2 W 24 33 13 18 1020.7 1020.7 0.0
16/07:30pm 8.0 3.7 3.3 72 2.0 W 15 24 8 13 1020.7 1020.7 0.0
16/07:00pm 8.0 3.3 2.9 70 2.2 W 17 30 9 16 1020.7 1020.7 0.0
16/06:30pm 7.5 3.5 2.8 72 2.0 W 13 17 7 9 1020.4 1020.4 0.0
16/06:00pm 7.9 4.3 3.2 72 2.0 W 11 17 6 9 1020.2 1020.2 0.0
16/05:30pm 8.3 3.2 3.0 69 2.3 W 19 28 10 15 1019.9 1019.9 0.0
16/05:00pm 9.4 4.7 3.2 65 2.7 W 17 26 9 14 1019.8 1019.8 0.0
16/04:30pm 10.6 5.0 3.2 60 3.3 W 22 33 12 18 1019.6 1019.6 0.0
16/04:00pm 11.3 5.3 3.3 58 3.6 W 24 33 13 18 1019.6 1019.6 0.0
16/03:30pm 11.9 6.0 3.7 57 3.7 W 24 32 13 17 1019.6 1019.6 0.0
16/03:00pm 12.2 7.0 3.7 56 3.8 W 20 28 11 15 1019.5 1019.5 0.0
16/02:30pm 12.4 7.5 4.1 57 3.8 W 19 28 10 15 1019.3 1019.3 0.0
16/02:00pm 12.9 7.9 3.8 54 4.2 W 19 28 10 15 1019.4 1019.4 0.0
16/01:30pm 12.9 8.5 4.6 57 3.9 W 17 26 9 14 1019.4 1019.4 0.0
16/01:00pm 12.9 8.8 4.6 57 3.9 W 15 24 8 13 1019.6 1019.6 0.0
16/12:30pm 12.3 8.0 3.5 55 4.0 W 15 24 8 13 1019.9 1019.9 0.0
16/12:00pm 12.2 8.8 3.9 57 3.8 W 11 17 6 9 1020.2 1020.2 0.0
16/11:30am 11.6 8.0 3.1 56 3.8 W 11 17 6 9 1020.4 1020.4 0.0
16/11:00am 11.4 6.8 3.7 59 3.5 WSW 17 30 9 16 1020.3 1020.3 0.0

Other formats

Comma delimited format used in spreadsheet applications
http://www.bom.gov.au/fwo/IDT60801/IDT60801.94955.axf

JavaScript Object Notation format (JSON) in row-major order
http://www.bom.gov.au/fwo/IDT60801/IDT60801.94955.json

Data quality

Most of these data are generated automatically and are frequently updated. Quality checks on data are not normally performed. It is possible for incorrect values to appear. Refer to information at About Latest Weather Observations and please check the disclaimer before using these data.